sensor_id;sensor_type;location;lat;lon;timestamp;temperature;humidity
11666;DHT22;5889;51.350;6.708;2023-05-16T05:46:09;9.20;99.90
11666;DHT22;5889;51.350;6.708;2023-05-16T07:24:35;9.80;99.90
11666;DHT22;5889;51.350;6.708;2023-05-16T07:27:28;10.00;99.90
11666;DHT22;5889;51.350;6.708;2023-05-16T07:34:02;10.50;99.90
11666;DHT22;5889;51.350;6.708;2023-05-16T08:04:52;11.50;99.90
11666;DHT22;5889;51.350;6.708;2023-05-16T08:07:23;11.70;99.90
11666;DHT22;5889;51.350;6.708;2023-05-16T08:09:52;11.90;99.90
11666;DHT22;5889;51.350;6.708;2023-05-16T08:12:28;11.90;99.90
11666;DHT22;5889;51.350;6.708;2023-05-16T08:15:02;11.90;99.90
11666;DHT22;5889;51.350;6.708;2023-05-16T08:17:33;11.90;99.90
11666;DHT22;5889;51.350;6.708;2023-05-16T08:20:08;11.80;99.90
11666;DHT22;5889;51.350;6.708;2023-05-16T08:22:52;12.00;99.90
11666;DHT22;5889;51.350;6.708;2023-05-16T08:25:24;12.10;99.90
11666;DHT22;5889;51.350;6.708;2023-05-16T08:27:56;12.30;99.90
11666;DHT22;5889;51.350;6.708;2023-05-16T08:30:28;12.50;99.90
11666;DHT22;5889;51.350;6.708;2023-05-16T08:33:06;12.70;99.90
11666;DHT22;5889;51.350;6.708;2023-05-16T08:35:42;12.80;99.90
11666;DHT22;5889;51.350;6.708;2023-05-16T08:38:20;13.00;99.90
11666;DHT22;5889;51.350;6.708;2023-05-16T08:40:58;12.80;99.90
11666;DHT22;5889;51.350;6.708;2023-05-16T08:43:35;12.50;99.90
11666;DHT22;5889;51.350;6.708;2023-05-16T08:46:25;12.60;99.90
11666;DHT22;5889;51.350;6.708;2023-05-16T08:49:01;12.80;99.90
11666;DHT22;5889;51.350;6.708;2023-05-16T08:51:41;12.70;99.90
11666;DHT22;5889;51.350;6.708;2023-05-16T08:54:25;12.70;99.90
11666;DHT22;5889;51.350;6.708;2023-05-16T08:57:01;12.80;99.90
11666;DHT22;5889;51.350;6.708;2023-05-16T08:59:35;13.20;99.90
11666;DHT22;5889;51.350;6.708;2023-05-16T09:02:07;13.20;99.90
11666;DHT22;5889;51.350;6.708;2023-05-16T09:04:43;13.10;99.90
11666;DHT22;5889;51.350;6.708;2023-05-16T09:07:25;13.20;99.90
11666;DHT22;5889;51.350;6.708;2023-05-16T09:09:57;13.30;99.90
11666;DHT22;5889;51.350;6.708;2023-05-16T09:12:33;13.50;99.90
11666;DHT22;5889;51.350;6.708;2023-05-16T09:15:09;13.60;99.90
11666;DHT22;5889;51.350;6.708;2023-05-16T09:17:42;13.70;99.90
11666;DHT22;5889;51.350;6.708;2023-05-16T09:20:19;13.70;99.90
11666;DHT22;5889;51.350;6.708;2023-05-16T09:22:53;13.70;99.90
11666;DHT22;5889;51.350;6.708;2023-05-16T09:25:40;13.50;99.90
11666;DHT22;5889;51.350;6.708;2023-05-16T09:28:15;13.60;99.90
11666;DHT22;5889;51.350;6.708;2023-05-16T09:30:53;13.80;99.90
11666;DHT22;5889;51.350;6.708;2023-05-16T09:33:28;14.10;99.90
11666;DHT22;5889;51.350;6.708;2023-05-16T09:36:01;14.20;99.20
11666;DHT22;5889;51.350;6.708;2023-05-16T09:38:48;14.30;99.90
11666;DHT22;5889;51.350;6.708;2023-05-16T09:41:37;14.30;99.90
11666;DHT22;5889;51.350;6.708;2023-05-16T09:44:41;13.60;99.90
11666;DHT22;5889;51.350;6.708;2023-05-16T09:47:33;13.20;99.80
11666;DHT22;5889;51.350;6.708;2023-05-16T09:50:16;13.30;99.90
11666;DHT22;5889;51.350;6.708;2023-05-16T09:53:18;13.20;99.90
11666;DHT22;5889;51.350;6.708;2023-05-16T09:56:27;13.00;99.90
11666;DHT22;5889;51.350;6.708;2023-05-16T09:59:17;12.80;99.90
11666;DHT22;5889;51.350;6.708;2023-05-16T10:02:09;12.70;99.90
11666;DHT22;5889;51.350;6.708;2023-05-16T10:04:51;12.70;99.90
11666;DHT22;5889;51.350;6.708;2023-05-16T10:07:51;12.80;99.90
11666;DHT22;5889;51.350;6.708;2023-05-16T10:10:25;13.10;99.90
11666;DHT22;5889;51.350;6.708;2023-05-16T10:13:43;13.50;99.90
11666;DHT22;5889;51.350;6.708;2023-05-16T10:17:03;13.40;99.90
11666;DHT22;5889;51.350;6.708;2023-05-16T10:19:40;13.10;99.90
11666;DHT22;5889;51.350;6.708;2023-05-16T10:22:13;13.10;99.90
11666;DHT22;5889;51.350;6.708;2023-05-16T10:24:48;13.00;99.90
11666;DHT22;5889;51.350;6.708;2023-05-16T10:27:21;13.00;99.90
11666;DHT22;5889;51.350;6.708;2023-05-16T10:29:59;13.00;99.90
11666;DHT22;5889;51.350;6.708;2023-05-16T10:32:33;13.10;99.90
11666;DHT22;5889;51.350;6.708;2023-05-16T10:35:11;13.00;99.90
11666;DHT22;5889;51.350;6.708;2023-05-16T10:37:49;13.00;99.90
11666;DHT22;5889;51.350;6.708;2023-05-16T10:40:32;12.80;99.90
11666;DHT22;5889;51.350;6.708;2023-05-16T10:47:02;12.50;99.90
11666;DHT22;5889;51.350;6.708;2023-05-16T10:54:06;12.60;99.90
11666;DHT22;5889;51.350;6.708;2023-05-16T10:56:59;12.80;99.90
11666;DHT22;5889;51.350;6.708;2023-05-16T10:59:44;13.20;99.90
11666;DHT22;5889;51.350;6.708;2023-05-16T11:02:30;13.50;99.90
11666;DHT22;5889;51.350;6.708;2023-05-16T11:05:03;13.80;99.90
11666;DHT22;5889;51.350;6.708;2023-05-16T11:07:37;14.10;99.90
11666;DHT22;5889;51.350;6.708;2023-05-16T11:10:13;14.10;99.90
11666;DHT22;5889;51.350;6.708;2023-05-16T11:12:48;14.20;99.90
11666;DHT22;5889;51.350;6.708;2023-05-16T11:15:24;14.30;99.90
11666;DHT22;5889;51.350;6.708;2023-05-16T11:18:13;14.30;99.90
11666;DHT22;5889;51.350;6.708;2023-05-16T11:20:53;14.30;99.90
11666;DHT22;5889;51.350;6.708;2023-05-16T11:23:35;14.60;99.90
11666;DHT22;5889;51.350;6.708;2023-05-16T11:26:09;14.80;99.90
11666;DHT22;5889;51.350;6.708;2023-05-16T11:28:50;14.40;99.90
11666;DHT22;5889;51.350;6.708;2023-05-16T11:31:31;14.60;99.90
11666;DHT22;5889;51.350;6.708;2023-05-16T11:34:14;14.40;97.50
11666;DHT22;5889;51.350;6.708;2023-05-16T11:36:56;14.10;98.20
11666;DHT22;5889;51.350;6.708;2023-05-16T11:39:38;13.80;98.60
11666;DHT22;5889;51.350;6.708;2023-05-16T11:42:29;13.70;99.30
11666;DHT22;5889;51.350;6.708;2023-05-16T11:49:06;13.30;99.90
11666;DHT22;5889;51.350;6.708;2023-05-16T11:51:48;13.40;99.90
11666;DHT22;5889;51.350;6.708;2023-05-16T11:55:07;13.60;99.90
11666;DHT22;5889;51.350;6.708;2023-05-16T11:58:30;13.70;99.90
11666;DHT22;5889;51.350;6.708;2023-05-16T12:01:32;13.70;99.90
11666;DHT22;5889;51.350;6.708;2023-05-16T12:04:14;13.90;99.90
11666;DHT22;5889;51.350;6.708;2023-05-16T12:07:00;14.20;99.90
11666;DHT22;5889;51.350;6.708;2023-05-16T12:09:58;14.40;99.50
11666;DHT22;5889;51.350;6.708;2023-05-16T15:58:49;13.40;99.50
11666;DHT22;5889;51.350;6.708;2023-05-16T16:19:27;13.00;99.50
11666;DHT22;5889;51.350;6.708;2023-05-16T16:56:14;13.30;99.90
11666;DHT22;5889;51.350;6.708;2023-05-16T16:58:41;13.30;99.90
11666;DHT22;5889;51.350;6.708;2023-05-16T17:09:24;13.00;99.90
11666;DHT22;5889;51.350;6.708;2023-05-16T17:34:22;12.90;99.90
11666;DHT22;5889;51.350;6.708;2023-05-16T17:36:50;12.90;99.90
11666;DHT22;5889;51.350;6.708;2023-05-16T17:39:19;12.80;99.90
11666;DHT22;5889;51.350;6.708;2023-05-16T17:41:47;12.60;99.90
11666;DHT22;5889;51.350;6.708;2023-05-16T17:44:16;12.60;99.90
11666;DHT22;5889;51.350;6.708;2023-05-16T17:46:44;12.60;99.90
11666;DHT22;5889;51.350;6.708;2023-05-16T17:49:12;12.60;99.90
11666;DHT22;5889;51.350;6.708;2023-05-16T17:51:50;12.50;99.90
11666;DHT22;5889;51.350;6.708;2023-05-16T17:54:20;12.50;99.90
11666;DHT22;5889;51.350;6.708;2023-05-16T17:56:49;12.50;99.90
11666;DHT22;5889;51.350;6.708;2023-05-16T17:59:28;12.50;99.90
